sensor_id;sensor_type;location;lat;lon;timestamp;temperature;humidity
21508;DHT22;10915;54.352;9.074;2023-02-21T00:00:33;8.10;99.90
21508;DHT22;10915;54.352;9.074;2023-02-21T00:03:18;8.00;99.90
21508;DHT22;10915;54.352;9.074;2023-02-21T00:06:02;8.10;99.90
21508;DHT22;10915;54.352;9.074;2023-02-21T00:28:58;8.00;99.90
21508;DHT22;10915;54.352;9.074;2023-02-21T00:31:42;8.00;99.90
21508;DHT22;10915;54.352;9.074;2023-02-21T00:34:27;8.00;99.90
21508;DHT22;10915;54.352;9.074;2023-02-21T00:37:11;8.00;99.90
21508;DHT22;10915;54.352;9.074;2023-02-21T00:39:55;8.00;99.90
21508;DHT22;10915;54.352;9.074;2023-02-21T00:42:39;8.00;99.90
21508;DHT22;10915;54.352;9.074;2023-02-21T00:45:24;8.00;99.90
21508;DHT22;10915;54.352;9.074;2023-02-21T00:48:08;8.10;99.90
21508;DHT22;10915;54.352;9.074;2023-02-21T00:50:52;8.10;99.90
21508;DHT22;10915;54.352;9.074;2023-02-21T00:53:36;8.10;99.90
21508;DHT22;10915;54.352;9.074;2023-02-21T00:56:20;8.10;99.90
21508;DHT22;10915;54.352;9.074;2023-02-21T00:59:04;8.10;99.90
21508;DHT22;10915;54.352;9.074;2023-02-21T01:01:48;8.10;99.90
21508;DHT22;10915;54.352;9.074;2023-02-21T01:04:32;8.20;99.90
21508;DHT22;10915;54.352;9.074;2023-02-21T01:07:17;8.10;99.90
21508;DHT22;10915;54.352;9.074;2023-02-21T01:10:01;8.20;99.90
21508;DHT22;10915;54.352;9.074;2023-02-21T01:12:45;8.10;99.90
21508;DHT22;10915;54.352;9.074;2023-02-21T01:15:29;8.20;99.90
21508;DHT22;10915;54.352;9.074;2023-02-21T01:18:13;8.10;99.90
21508;DHT22;10915;54.352;9.074;2023-02-21T01:20:58;8.10;99.90
21508;DHT22;10915;54.352;9.074;2023-02-21T01:23:42;8.20;99.90
21508;DHT22;10915;54.352;9.074;2023-02-21T01:26:29;8.20;99.90
21508;DHT22;10915;54.352;9.074;2023-02-21T01:29:13;8.20;99.90
21508;DHT22;10915;54.352;9.074;2023-02-21T01:31:57;8.10;99.90
21508;DHT22;10915;54.352;9.074;2023-02-21T01:34:41;8.10;99.90
21508;DHT22;10915;54.352;9.074;2023-02-21T01:37:25;8.10;99.90
21508;DHT22;10915;54.352;9.074;2023-02-21T01:40:14;8.10;99.90
21508;DHT22;10915;54.352;9.074;2023-02-21T01:42:58;8.10;99.90
21508;DHT22;10915;54.352;9.074;2023-02-21T01:45:46;8.10;99.90
21508;DHT22;10915;54.352;9.074;2023-02-21T01:48:32;8.10;99.90
21508;DHT22;10915;54.352;9.074;2023-02-21T01:51:19;8.10;99.90
21508;DHT22;10915;54.352;9.074;2023-02-21T01:54:05;8.10;99.90
21508;DHT22;10915;54.352;9.074;2023-02-21T01:56:50;8.10;99.90
21508;DHT22;10915;54.352;9.074;2023-02-21T01:59:35;8.10;99.90
21508;DHT22;10915;54.352;9.074;2023-02-21T02:02:38;8.10;99.90
21508;DHT22;10915;54.352;9.074;2023-02-21T02:05:24;8.10;99.90
21508;DHT22;10915;54.352;9.074;2023-02-21T02:08:10;8.00;99.90
21508;DHT22;10915;54.352;9.074;2023-02-21T02:11:05;8.00;99.90
21508;DHT22;10915;54.352;9.074;2023-02-21T02:17:00;8.00;99.90
21508;DHT22;10915;54.352;9.074;2023-02-21T02:22:38;8.00;99.90
21508;DHT22;10915;54.352;9.074;2023-02-21T02:30:50;7.90;99.90
21508;DHT22;10915;54.352;9.074;2023-02-21T02:36:11;7.90;99.90
21508;DHT22;10915;54.352;9.074;2023-02-21T02:41:40;7.80;99.90
21508;DHT22;10915;54.352;9.074;2023-02-21T02:44:36;7.90;99.90
21508;DHT22;10915;54.352;9.074;2023-02-21T02:47:04;7.80;99.90
21508;DHT22;10915;54.352;9.074;2023-02-21T02:49:33;7.80;99.90
21508;DHT22;10915;54.352;9.074;2023-02-21T02:52:07;7.80;99.90
21508;DHT22;10915;54.352;9.074;2023-02-21T02:54:33;7.80;99.90
21508;DHT22;10915;54.352;9.074;2023-02-21T02:57:01;7.70;99.90
21508;DHT22;10915;54.352;9.074;2023-02-21T02:59:30;7.70;99.90
21508;DHT22;10915;54.352;9.074;2023-02-21T03:05:10;7.70;99.90
21508;DHT22;10915;54.352;9.074;2023-02-21T03:08:02;7.70;99.90
21508;DHT22;10915;54.352;9.074;2023-02-21T03:10:56;7.60;99.90
21508;DHT22;10915;54.352;9.074;2023-02-21T03:13:39;7.60;99.90
21508;DHT22;10915;54.352;9.074;2023-02-21T03:16:42;7.60;99.90
21508;DHT22;10915;54.352;9.074;2023-02-21T03:19:24;7.60;99.90
21508;DHT22;10915;54.352;9.074;2023-02-21T03:22:04;7.60;99.90
21508;DHT22;10915;54.352;9.074;2023-02-21T03:24:33;7.60;99.90
21508;DHT22;10915;54.352;9.074;2023-02-21T03:27:03;7.60;99.90
21508;DHT22;10915;54.352;9.074;2023-02-21T03:29:31;7.60;99.90
21508;DHT22;10915;54.352;9.074;2023-02-21T03:32:02;7.60;99.90
21508;DHT22;10915;54.352;9.074;2023-02-21T03:34:38;7.60;99.90
21508;DHT22;10915;54.352;9.074;2023-02-21T03:37:06;7.60;99.90
21508;DHT22;10915;54.352;9.074;2023-02-21T03:39:31;7.60;99.90
21508;DHT22;10915;54.352;9.074;2023-02-21T03:41:57;7.60;99.90
21508;DHT22;10915;54.352;9.074;2023-02-21T03:44:23;7.60;99.90
21508;DHT22;10915;54.352;9.074;2023-02-21T03:46:48;7.60;99.90
21508;DHT22;10915;54.352;9.074;2023-02-21T03:49:14;7.60;99.90
21508;DHT22;10915;54.352;9.074;2023-02-21T03:51:40;7.60;99.90
21508;DHT22;10915;54.352;9.074;2023-02-21T03:54:06;7.60;99.90
21508;DHT22;10915;54.352;9.074;2023-02-21T03:56:31;7.50;99.90
21508;DHT22;10915;54.352;9.074;2023-02-21T03:58:57;7.60;99.90
21508;DHT22;10915;54.352;9.074;2023-02-21T04:01:22;7.60;99.90
21508;DHT22;10915;54.352;9.074;2023-02-21T04:03:48;7.50;99.90
21508;DHT22;10915;54.352;9.074;2023-02-21T04:06:15;7.50;99.90
21508;DHT22;10915;54.352;9.074;2023-02-21T04:08:40;7.50;99.90
21508;DHT22;10915;54.352;9.074;2023-02-21T04:11:06;7.50;99.90
21508;DHT22;10915;54.352;9.074;2023-02-21T04:13:32;7.50;99.90
21508;DHT22;10915;54.352;9.074;2023-02-21T04:15:58;7.50;99.90
21508;DHT22;10915;54.352;9.074;2023-02-21T04:18:23;7.50;99.90
21508;DHT22;10915;54.352;9.074;2023-02-21T04:20:49;7.50;99.90
21508;DHT22;10915;54.352;9.074;2023-02-21T04:23:19;7.40;99.90
21508;DHT22;10915;54.352;9.074;2023-02-21T04:25:45;7.50;99.90
21508;DHT22;10915;54.352;9.074;2023-02-21T04:28:11;7.40;99.90
21508;DHT22;10915;54.352;9.074;2023-02-21T04:30:38;7.40;99.90
21508;DHT22;10915;54.352;9.074;2023-02-21T04:33:03;7.40;99.90
21508;DHT22;10915;54.352;9.074;2023-02-21T04:35:29;7.50;99.90
21508;DHT22;10915;54.352;9.074;2023-02-21T04:37:55;7.40;99.90
21508;DHT22;10915;54.352;9.074;2023-02-21T04:40:21;7.50;99.90
21508;DHT22;10915;54.352;9.074;2023-02-21T04:42:46;7.40;99.90
21508;DHT22;10915;54.352;9.074;2023-02-21T04:45:12;7.40;99.90
21508;DHT22;10915;54.352;9.074;2023-02-21T04:47:38;7.40;99.90
21508;DHT22;10915;54.352;9.074;2023-02-21T04:50:04;7.40;99.90
21508;DHT22;10915;54.352;9.074;2023-02-21T04:52:30;7.40;99.90
21508;DHT22;10915;54.352;9.074;2023-02-21T04:54:57;7.40;99.90
21508;DHT22;10915;54.352;9.074;2023-02-21T04:57:23;7.40;99.90
21508;DHT22;10915;54.352;9.074;2023-02-21T04:59:55;7.40;99.90
21508;DHT22;10915;54.352;9.074;2023-02-21T05:02:21;7.40;99.90
21508;DHT22;10915;54.352;9.074;2023-02-21T05:04:47;7.40;99.90
21508;DHT22;10915;54.352;9.074;2023-02-21T05:07:13;7.40;99.90
21508;DHT22;10915;54.352;9.074;2023-02-21T05:09:38;7.40;99.90
21508;DHT22;10915;54.352;9.074;2023-02-21T05:12:05;7.30;99.90
21508;DHT22;10915;54.352;9.074;2023-02-21T05:14:38;7.30;99.90
21508;DHT22;10915;54.352;9.074;2023-02-21T05:17:05;7.30;99.90
21508;DHT22;10915;54.352;9.074;2023-02-21T05:19:31;7.30;99.90
21508;DHT22;10915;54.352;9.074;2023-02-21T05:21:58;7.30;99.90
21508;DHT22;10915;54.352;9.074;2023-02-21T05:24:26;7.30;99.90
21508;DHT22;10915;54.352;9.074;2023-02-21T05:26:53;7.30;99.90
21508;DHT22;10915;54.352;9.074;2023-02-21T05:29:19;7.30;99.90
21508;DHT22;10915;54.352;9.074;2023-02-21T05:31:46;7.30;99.90
21508;DHT22;10915;54.352;9.074;2023-02-21T05:34:12;7.30;99.90
21508;DHT22;10915;54.352;9.074;2023-02-21T05:36:38;7.30;99.90
21508;DHT22;10915;54.352;9.074;2023-02-21T05:39:05;7.30;99.90
21508;DHT22;10915;54.352;9.074;2023-02-21T05:41:31;7.30;99.90
21508;DHT22;10915;54.352;9.074;2023-02-21T05:43:57;7.20;99.90
21508;DHT22;10915;54.352;9.074;2023-02-21T05:46:25;7.20;99.90
21508;DHT22;10915;54.352;9.074;2023-02-21T05:48:52;7.20;99.90
21508;DHT22;10915;54.352;9.074;2023-02-21T05:51:18;7.20;99.90
21508;DHT22;10915;54.352;9.074;2023-02-21T05:53:44;7.20;99.90
21508;DHT22;10915;54.352;9.074;2023-02-21T05:56:10;7.20;99.90
21508;DHT22;10915;54.352;9.074;2023-02-21T05:58:36;7.20;99.90
21508;DHT22;10915;54.352;9.074;2023-02-21T06:01:02;7.20;99.90
21508;DHT22;10915;54.352;9.074;2023-02-21T06:03:28;7.30;99.90
21508;DHT22;10915;54.352;9.074;2023-02-21T06:05:54;7.30;99.90
21508;DHT22;10915;54.352;9.074;2023-02-21T06:08:19;7.30;99.90
21508;DHT22;10915;54.352;9.074;2023-02-21T06:10:45;7.30;99.90
21508;DHT22;10915;54.352;9.074;2023-02-21T06:13:11;7.30;99.90
21508;DHT22;10915;54.352;9.074;2023-02-21T06:15:37;7.30;99.90
21508;DHT22;10915;54.352;9.074;2023-02-21T06:18:02;7.30;99.90
21508;DHT22;10915;54.352;9.074;2023-02-21T06:20:28;7.30;99.90
21508;DHT22;10915;54.352;9.074;2023-02-21T06:22:53;7.30;99.90
21508;DHT22;10915;54.352;9.074;2023-02-21T06:25:19;7.30;99.90
21508;DHT22;10915;54.352;9.074;2023-02-21T06:27:45;7.30;99.90
21508;DHT22;10915;54.352;9.074;2023-02-21T06:30:11;7.30;99.90
21508;DHT22;10915;54.352;9.074;2023-02-21T06:32:37;7.30;99.90
21508;DHT22;10915;54.352;9.074;2023-02-21T06:35:04;7.30;99.90
21508;DHT22;10915;54.352;9.074;2023-02-21T06:37:30;7.30;99.90
21508;DHT22;10915;54.352;9.074;2023-02-21T06:39:55;7.30;99.90
21508;DHT22;10915;54.352;9.074;2023-02-21T06:42:21;7.30;99.90
21508;DHT22;10915;54.352;9.074;2023-02-21T06:44:47;7.30;99.90
21508;DHT22;10915;54.352;9.074;2023-02-21T06:47:14;7.30;99.90
21508;DHT22;10915;54.352;9.074;2023-02-21T06:49:40;7.30;99.90
21508;DHT22;10915;54.352;9.074;2023-02-21T06:52:06;7.30;99.90
21508;DHT22;10915;54.352;9.074;2023-02-21T06:54:32;7.30;99.90
21508;DHT22;10915;54.352;9.074;2023-02-21T06:56:58;7.20;99.90
21508;DHT22;10915;54.352;9.074;2023-02-21T06:59:27;7.30;99.90
21508;DHT22;10915;54.352;9.074;2023-02-21T07:01:53;7.20;99.90
21508;DHT22;10915;54.352;9.074;2023-02-21T07:04:19;7.20;99.90
21508;DHT22;10915;54.352;9.074;2023-02-21T07:06:44;7.20;99.90
21508;DHT22;10915;54.352;9.074;2023-02-21T07:09:10;7.20;99.90
21508;DHT22;10915;54.352;9.074;2023-02-21T07:11:36;7.30;99.90
21508;DHT22;10915;54.352;9.074;2023-02-21T07:14:02;7.20;99.90
21508;DHT22;10915;54.352;9.074;2023-02-21T07:16:28;7.20;99.90
21508;DHT22;10915;54.352;9.074;2023-02-21T07:18:53;7.30;99.90
21508;DHT22;10915;54.352;9.074;2023-02-21T07:21:19;7.30;99.90
21508;DHT22;10915;54.352;9.074;2023-02-21T07:23:46;7.30;99.90
21508;DHT22;10915;54.352;9.074;2023-02-21T07:26:13;7.30;99.90
21508;DHT22;10915;54.352;9.074;2023-02-21T07:28:38;7.30;99.90
21508;DHT22;10915;54.352;9.074;2023-02-21T07:31:04;7.40;99.90
21508;DHT22;10915;54.352;9.074;2023-02-21T07:33:30;7.40;99.90
21508;DHT22;10915;54.352;9.074;2023-02-21T07:35:55;7.50;99.90
21508;DHT22;10915;54.352;9.074;2023-02-21T07:38:23;7.50;99.90
21508;DHT22;10915;54.352;9.074;2023-02-21T07:40:48;7.60;99.90
21508;DHT22;10915;54.352;9.074;2023-02-21T07:43:14;7.70;99.90
21508;DHT22;10915;54.352;9.074;2023-02-21T07:45:40;7.80;99.90
21508;DHT22;10915;54.352;9.074;2023-02-21T07:48:06;7.80;99.90
21508;DHT22;10915;54.352;9.074;2023-02-21T07:50:32;7.90;99.90
21508;DHT22;10915;54.352;9.074;2023-02-21T07:52:57;8.00;99.90
21508;DHT22;10915;54.352;9.074;2023-02-21T07:55:24;8.10;99.90
21508;DHT22;10915;54.352;9.074;2023-02-21T07:57:50;8.10;99.90
21508;DHT22;10915;54.352;9.074;2023-02-21T08:00:16;8.20;99.90
21508;DHT22;10915;54.352;9.074;2023-02-21T08:02:46;8.10;99.90
21508;DHT22;10915;54.352;9.074;2023-02-21T08:05:15;8.10;99.90
21508;DHT22;10915;54.352;9.074;2023-02-21T08:07:41;8.10;99.90
21508;DHT22;10915;54.352;9.074;2023-02-21T08:10:07;8.10;99.90
21508;DHT22;10915;54.352;9.074;2023-02-21T08:12:32;8.10;99.90
21508;DHT22;10915;54.352;9.074;2023-02-21T08:14:58;8.10;99.90
21508;DHT22;10915;54.352;9.074;2023-02-21T08:17:24;8.10;99.90
21508;DHT22;10915;54.352;9.074;2023-02-21T08:19:50;8.10;99.90
21508;DHT22;10915;54.352;9.074;2023-02-21T08:22:15;8.10;99.90
21508;DHT22;10915;54.352;9.074;2023-02-21T08:24:41;8.20;99.90
21508;DHT22;10915;54.352;9.074;2023-02-21T08:27:07;8.20;99.90
21508;DHT22;10915;54.352;9.074;2023-02-21T08:29:32;8.20;99.90
21508;DHT22;10915;54.352;9.074;2023-02-21T08:31:58;8.20;99.90
21508;DHT22;10915;54.352;9.074;2023-02-21T08:34:24;8.20;99.90
21508;DHT22;10915;54.352;9.074;2023-02-21T08:36:49;8.30;99.90
21508;DHT22;10915;54.352;9.074;2023-02-21T08:39:15;8.30;99.90
21508;DHT22;10915;54.352;9.074;2023-02-21T08:41:44;8.30;99.90
21508;DHT22;10915;54.352;9.074;2023-02-21T08:44:12;8.40;99.90
21508;DHT22;10915;54.352;9.074;2023-02-21T08:46:38;8.40;99.90
21508;DHT22;10915;54.352;9.074;2023-02-21T08:49:07;8.50;99.90
21508;DHT22;10915;54.352;9.074;2023-02-21T08:51:33;8.60;99.90
21508;DHT22;10915;54.352;9.074;2023-02-21T08:53:59;8.70;99.90
21508;DHT22;10915;54.352;9.074;2023-02-21T08:56:25;8.80;99.90
21508;DHT22;10915;54.352;9.074;2023-02-21T08:58:51;8.90;99.90
21508;DHT22;10915;54.352;9.074;2023-02-21T09:01:22;8.90;99.90
21508;DHT22;10915;54.352;9.074;2023-02-21T09:03:47;8.90;99.90
21508;DHT22;10915;54.352;9.074;2023-02-21T09:06:14;8.90;99.90
21508;DHT22;10915;54.352;9.074;2023-02-21T09:08:39;8.90;99.90
21508;DHT22;10915;54.352;9.074;2023-02-21T09:11:06;9.00;99.90
21508;DHT22;10915;54.352;9.074;2023-02-21T09:13:33;9.10;99.90
21508;DHT22;10915;54.352;9.074;2023-02-21T09:16:00;9.30;99.90
21508;DHT22;10915;54.352;9.074;2023-02-21T09:18:26;9.40;99.90
21508;DHT22;10915;54.352;9.074;2023-02-21T09:20:52;9.40;99.90
21508;DHT22;10915;54.352;9.074;2023-02-21T09:23:23;9.40;99.90
21508;DHT22;10915;54.352;9.074;2023-02-21T09:25:49;9.40;99.90
21508;DHT22;10915;54.352;9.074;2023-02-21T09:28:15;9.50;99.90
21508;DHT22;10915;54.352;9.074;2023-02-21T09:30:41;9.50;99.90
21508;DHT22;10915;54.352;9.074;2023-02-21T09:33:07;9.60;99.90
21508;DHT22;10915;54.352;9.074;2023-02-21T09:35:33;9.70;99.90
21508;DHT22;10915;54.352;9.074;2023-02-21T09:37:59;9.80;99.90
21508;DHT22;10915;54.352;9.074;2023-02-21T09:40:51;9.80;99.90
21508;DHT22;10915;54.352;9.074;2023-02-21T09:43:40;9.80;99.90
21508;DHT22;10915;54.352;9.074;2023-02-21T09:46:13;9.70;99.90
21508;DHT22;10915;54.352;9.074;2023-02-21T09:48:42;9.70;99.90
21508;DHT22;10915;54.352;9.074;2023-02-21T09:51:10;9.70;99.90
21508;DHT22;10915;54.352;9.074;2023-02-21T09:53:39;9.70;99.90
21508;DHT22;10915;54.352;9.074;2023-02-21T09:56:21;9.70;99.90
21508;DHT22;10915;54.352;9.074;2023-02-21T09:58:49;9.70;99.90
21508;DHT22;10915;54.352;9.074;2023-02-21T10:01:31;9.80;99.90
21508;DHT22;10915;54.352;9.074;2023-02-21T10:06:57;10.00;99.90
21508;DHT22;10915;54.352;9.074;2023-02-21T10:12:36;10.00;99.90
21508;DHT22;10915;54.352;9.074;2023-02-21T10:17:57;10.10;99.90
21508;DHT22;10915;54.352;9.074;2023-02-21T10:23:01;10.10;99.90
21508;DHT22;10915;54.352;9.074;2023-02-21T10:25:30;10.10;99.90
21508;DHT22;10915;54.352;9.074;2023-02-21T10:27:58;10.20;99.90
21508;DHT22;10915;54.352;9.074;2023-02-21T10:30:26;10.20;99.90
21508;DHT22;10915;54.352;9.074;2023-02-21T10:32:54;10.20;99.90
21508;DHT22;10915;54.352;9.074;2023-02-21T10:35:20;10.20;99.90
21508;DHT22;10915;54.352;9.074;2023-02-21T10:37:55;10.30;99.90
21508;DHT22;10915;54.352;9.074;2023-02-21T10:48:24;10.20;99.90
21508;DHT22;10915;54.352;9.074;2023-02-21T10:53:45;10.10;99.90
21508;DHT22;10915;54.352;9.074;2023-02-21T10:58:45;10.20;99.90
21508;DHT22;10915;54.352;9.074;2023-02-21T11:01:17;10.10;99.90
21508;DHT22;10915;54.352;9.074;2023-02-21T11:03:49;10.10;99.90
21508;DHT22;10915;54.352;9.074;2023-02-21T11:08:49;10.10;99.90
21508;DHT22;10915;54.352;9.074;2023-02-21T11:11:15;10.10;99.90
21508;DHT22;10915;54.352;9.074;2023-02-21T11:13:40;10.10;99.90
21508;DHT22;10915;54.352;9.074;2023-02-21T11:16:16;10.10;99.90
21508;DHT22;10915;54.352;9.074;2023-02-21T11:18:43;10.10;99.90
21508;DHT22;10915;54.352;9.074;2023-02-21T11:21:18;10.10;99.90
21508;DHT22;10915;54.352;9.074;2023-02-21T11:23:59;10.10;99.90
21508;DHT22;10915;54.352;9.074;2023-02-21T11:26:30;10.20;99.90
21508;DHT22;10915;54.352;9.074;2023-02-21T11:29:09;10.30;99.90
21508;DHT22;10915;54.352;9.074;2023-02-21T11:31:36;10.40;99.90
21508;DHT22;10915;54.352;9.074;2023-02-21T11:34:06;10.30;99.90
21508;DHT22;10915;54.352;9.074;2023-02-21T11:36:35;10.30;99.90
21508;DHT22;10915;54.352;9.074;2023-02-21T11:39:23;10.30;99.90
21508;DHT22;10915;54.352;9.074;2023-02-21T11:41:58;10.40;99.90
21508;DHT22;10915;54.352;9.074;2023-02-21T11:47:25;10.50;99.90
21508;DHT22;10915;54.352;9.074;2023-02-21T11:52:49;10.50;99.90
21508;DHT22;10915;54.352;9.074;2023-02-21T11:55:22;10.50;99.90
21508;DHT22;10915;54.352;9.074;2023-02-21T11:58:26;10.50;99.90
21508;DHT22;10915;54.352;9.074;2023-02-21T12:01:15;10.70;99.90
21508;DHT22;10915;54.352;9.074;2023-02-21T12:04:13;10.80;99.90
21508;DHT22;10915;54.352;9.074;2023-02-21T12:06:53;10.80;99.90
21508;DHT22;10915;54.352;9.074;2023-02-21T12:12:22;10.70;99.90
21508;DHT22;10915;54.352;9.074;2023-02-21T12:15:18;10.70;99.90
21508;DHT22;10915;54.352;9.074;2023-02-21T12:25:40;10.70;99.90
21508;DHT22;10915;54.352;9.074;2023-02-21T12:31:35;10.60;99.90
21508;DHT22;10915;54.352;9.074;2023-02-21T12:36:50;10.70;99.90
21508;DHT22;10915;54.352;9.074;2023-02-21T12:40:08;10.60;99.90
21508;DHT22;10915;54.352;9.074;2023-02-21T12:42:40;10.70;99.90
21508;DHT22;10915;54.352;9.074;2023-02-21T12:45:43;10.80;99.90
21508;DHT22;10915;54.352;9.074;2023-02-21T12:48:32;10.80;99.90
21508;DHT22;10915;54.352;9.074;2023-02-21T12:51:07;10.80;99.90
21508;DHT22;10915;54.352;9.074;2023-02-21T12:53:53;10.80;99.90
21508;DHT22;10915;54.352;9.074;2023-02-21T12:56:44;10.80;99.90
21508;DHT22;10915;54.352;9.074;2023-02-21T12:59:40;10.90;99.90
21508;DHT22;10915;54.352;9.074;2023-02-21T13:04:55;10.80;99.90
21508;DHT22;10915;54.352;9.074;2023-02-21T13:07:46;10.90;99.90
21508;DHT22;10915;54.352;9.074;2023-02-21T13:10:27;11.00;99.90
21508;DHT22;10915;54.352;9.074;2023-02-21T13:13:14;10.90;99.90
21508;DHT22;10915;54.352;9.074;2023-02-21T13:15:42;10.80;99.90
21508;DHT22;10915;54.352;9.074;2023-02-21T13:18:17;10.80;99.90
21508;DHT22;10915;54.352;9.074;2023-02-21T13:21:15;10.70;99.90
21508;DHT22;10915;54.352;9.074;2023-02-21T13:26:56;10.60;99.90
21508;DHT22;10915;54.352;9.074;2023-02-21T13:29:30;10.60;99.90
21508;DHT22;10915;54.352;9.074;2023-02-21T13:32:05;10.50;99.90
21508;DHT22;10915;54.352;9.074;2023-02-21T13:34:38;10.50;99.90
21508;DHT22;10915;54.352;9.074;2023-02-21T13:37:09;10.50;99.90
21508;DHT22;10915;54.352;9.074;2023-02-21T13:39:44;10.50;99.90
21508;DHT22;10915;54.352;9.074;2023-02-21T13:42:22;10.50;99.90
21508;DHT22;10915;54.352;9.074;2023-02-21T13:50:49;10.40;99.90
21508;DHT22;10915;54.352;9.074;2023-02-21T13:53:24;10.30;99.90
21508;DHT22;10915;54.352;9.074;2023-02-21T13:58:42;10.30;99.90
21508;DHT22;10915;54.352;9.074;2023-02-21T14:03:47;10.40;99.90
21508;DHT22;10915;54.352;9.074;2023-02-21T14:06:31;10.40;99.90
21508;DHT22;10915;54.352;9.074;2023-02-21T14:09:01;10.30;99.90
21508;DHT22;10915;54.352;9.074;2023-02-21T14:11:33;10.30;99.90
21508;DHT22;10915;54.352;9.074;2023-02-21T14:19:45;10.10;99.90
21508;DHT22;10915;54.352;9.074;2023-02-21T14:22:17;10.20;99.90
21508;DHT22;10915;54.352;9.074;2023-02-21T14:24:48;10.20;99.90
21508;DHT22;10915;54.352;9.074;2023-02-21T14:30:12;10.20;99.90
21508;DHT22;10915;54.352;9.074;2023-02-21T14:32:45;10.20;99.90
21508;DHT22;10915;54.352;9.074;2023-02-21T14:35:32;10.20;99.90
21508;DHT22;10915;54.352;9.074;2023-02-21T14:38:05;10.20;99.90
21508;DHT22;10915;54.352;9.074;2023-02-21T14:40:43;10.20;99.90
21508;DHT22;10915;54.352;9.074;2023-02-21T15:00:22;9.90;99.90
21508;DHT22;10915;54.352;9.074;2023-02-21T15:03:00;9.90;99.90
21508;DHT22;10915;54.352;9.074;2023-02-21T15:08:20;10.00;99.90
21508;DHT22;10915;54.352;9.074;2023-02-21T15:10:49;10.00;99.90
21508;DHT22;10915;54.352;9.074;2023-02-21T15:13:30;10.10;99.90
21508;DHT22;10915;54.352;9.074;2023-02-21T15:16:01;10.10;99.90
21508;DHT22;10915;54.352;9.074;2023-02-21T15:21:19;10.10;99.90
21508;DHT22;10915;54.352;9.074;2023-02-21T15:23:47;10.10;99.90
21508;DHT22;10915;54.352;9.074;2023-02-21T15:29:01;10.20;99.90
21508;DHT22;10915;54.352;9.074;2023-02-21T15:31:27;10.20;99.90
21508;DHT22;10915;54.352;9.074;2023-02-21T15:33:56;10.20;99.90
21508;DHT22;10915;54.352;9.074;2023-02-21T15:36:22;10.20;99.90
21508;DHT22;10915;54.352;9.074;2023-02-21T15:39:01;10.20;99.90
21508;DHT22;10915;54.352;9.074;2023-02-21T15:41:49;10.20;99.90
21508;DHT22;10915;54.352;9.074;2023-02-21T15:46:59;10.10;99.90
21508;DHT22;10915;54.352;9.074;2023-02-21T15:49:32;10.10;99.90
21508;DHT22;10915;54.352;9.074;2023-02-21T15:52:00;10.00;99.90
21508;DHT22;10915;54.352;9.074;2023-02-21T15:54:29;9.90;99.90
21508;DHT22;10915;54.352;9.074;2023-02-21T15:59:32;9.70;99.90
21508;DHT22;10915;54.352;9.074;2023-02-21T16:04:44;9.50;99.90
21508;DHT22;10915;54.352;9.074;2023-02-21T16:07:34;9.40;99.90
21508;DHT22;10915;54.352;9.074;2023-02-21T16:10:09;9.40;99.90
21508;DHT22;10915;54.352;9.074;2023-02-21T16:12:41;9.30;99.90
21508;DHT22;10915;54.352;9.074;2023-02-21T16:17:38;9.20;99.90
21508;DHT22;10915;54.352;9.074;2023-02-21T16:20:26;9.10;99.90
21508;DHT22;10915;54.352;9.074;2023-02-21T16:28:27;9.00;99.90
21508;DHT22;10915;54.352;9.074;2023-02-21T16:30:53;9.00;99.90
21508;DHT22;10915;54.352;9.074;2023-02-21T16:33:23;9.00;99.90
21508;DHT22;10915;54.352;9.074;2023-02-21T16:35:49;9.00;99.90
21508;DHT22;10915;54.352;9.074;2023-02-21T16:38:17;9.00;99.90
21508;DHT22;10915;54.352;9.074;2023-02-21T16:40:44;8.90;99.90
21508;DHT22;10915;54.352;9.074;2023-02-21T16:43:25;8.90;99.90
21508;DHT22;10915;54.352;9.074;2023-02-21T16:45:57;8.90;99.90
21508;DHT22;10915;54.352;9.074;2023-02-21T16:48:28;8.90;99.90
21508;DHT22;10915;54.352;9.074;2023-02-21T16:50:59;8.90;99.90
21508;DHT22;10915;54.352;9.074;2023-02-21T16:53:27;8.90;99.90
21508;DHT22;10915;54.352;9.074;2023-02-21T16:55:53;8.80;99.90
21508;DHT22;10915;54.352;9.074;2023-02-21T16:58:35;8.80;99.90
21508;DHT22;10915;54.352;9.074;2023-02-21T17:01:07;8.80;99.90
21508;DHT22;10915;54.352;9.074;2023-02-21T17:03:36;8.70;99.90
21508;DHT22;10915;54.352;9.074;2023-02-21T17:06:02;8.70;99.90
21508;DHT22;10915;54.352;9.074;2023-02-21T17:08:28;8.70;99.90
21508;DHT22;10915;54.352;9.074;2023-02-21T17:10:55;8.70;99.90
21508;DHT22;10915;54.352;9.074;2023-02-21T17:13:21;8.70;99.90
21508;DHT22;10915;54.352;9.074;2023-02-21T17:15:47;8.70;99.90
21508;DHT22;10915;54.352;9.074;2023-02-21T17:18:13;8.70;99.90
21508;DHT22;10915;54.352;9.074;2023-02-21T17:20:39;8.70;99.90
21508;DHT22;10915;54.352;9.074;2023-02-21T17:23:05;8.70;99.90
21508;DHT22;10915;54.352;9.074;2023-02-21T17:25:30;8.70;99.90
21508;DHT22;10915;54.352;9.074;2023-02-21T17:27:58;8.70;99.90
21508;DHT22;10915;54.352;9.074;2023-02-21T17:30:24;8.80;99.90
21508;DHT22;10915;54.352;9.074;2023-02-21T17:32:51;8.80;99.90
21508;DHT22;10915;54.352;9.074;2023-02-21T17:35:18;8.70;99.90
21508;DHT22;10915;54.352;9.074;2023-02-21T17:37:45;8.70;99.90
21508;DHT22;10915;54.352;9.074;2023-02-21T17:40:19;8.70;99.90
21508;DHT22;10915;54.352;9.074;2023-02-21T17:42:45;8.70;99.90
21508;DHT22;10915;54.352;9.074;2023-02-21T17:45:12;8.80;99.90
21508;DHT22;10915;54.352;9.074;2023-02-21T17:47:40;8.80;99.90
21508;DHT22;10915;54.352;9.074;2023-02-21T17:50:06;8.80;99.90
21508;DHT22;10915;54.352;9.074;2023-02-21T17:52:32;8.80;99.90
21508;DHT22;10915;54.352;9.074;2023-02-21T17:54:58;8.80;99.90
21508;DHT22;10915;54.352;9.074;2023-02-21T17:57:27;8.80;99.90
21508;DHT22;10915;54.352;9.074;2023-02-21T17:59:54;8.80;99.90
21508;DHT22;10915;54.352;9.074;2023-02-21T18:02:20;8.70;99.90
21508;DHT22;10915;54.352;9.074;2023-02-21T18:04:45;8.70;99.90
21508;DHT22;10915;54.352;9.074;2023-02-21T18:07:13;8.70;99.90
21508;DHT22;10915;54.352;9.074;2023-02-21T18:09:39;8.60;99.90
21508;DHT22;10915;54.352;9.074;2023-02-21T18:12:04;8.60;99.90
21508;DHT22;10915;54.352;9.074;2023-02-21T18:14:31;8.60;99.90
21508;DHT22;10915;54.352;9.074;2023-02-21T18:16:57;8.60;99.90
21508;DHT22;10915;54.352;9.074;2023-02-21T18:19:24;8.60;99.90
21508;DHT22;10915;54.352;9.074;2023-02-21T18:21:50;8.60;99.90
21508;DHT22;10915;54.352;9.074;2023-02-21T18:24:16;8.60;99.90
21508;DHT22;10915;54.352;9.074;2023-02-21T18:26:44;8.60;99.90
21508;DHT22;10915;54.352;9.074;2023-02-21T18:29:11;8.60;99.90
21508;DHT22;10915;54.352;9.074;2023-02-21T18:31:37;8.70;99.90
21508;DHT22;10915;54.352;9.074;2023-02-21T18:34:04;8.70;99.90
21508;DHT22;10915;54.352;9.074;2023-02-21T18:36:30;8.60;99.90
21508;DHT22;10915;54.352;9.074;2023-02-21T18:38:56;8.60;99.90
21508;DHT22;10915;54.352;9.074;2023-02-21T18:41:22;8.70;99.90
21508;DHT22;10915;54.352;9.074;2023-02-21T18:43:51;8.70;99.90
21508;DHT22;10915;54.352;9.074;2023-02-21T18:46:19;8.70;99.90
21508;DHT22;10915;54.352;9.074;2023-02-21T18:48:47;8.70;99.90